sensor_id;sensor_type;location;lat;lon;timestamp;P1;durP1;ratioP1;P2;durP2;ratioP2
55706;SDS011;41608;45.384;20.394;2023-01-28T00:00:28;75.47;;;40.35;;
55706;SDS011;41608;45.384;20.394;2023-01-28T00:02:55;74.70;;;41.05;;
55706;SDS011;41608;45.384;20.394;2023-01-28T00:05:21;75.78;;;41.13;;
55706;SDS011;41608;45.384;20.394;2023-01-28T00:07:50;74.43;;;39.78;;
55706;SDS011;41608;45.384;20.394;2023-01-28T00:10:16;77.10;;;41.15;;
55706;SDS011;41608;45.384;20.394;2023-01-28T00:12:42;71.88;;;39.42;;
55706;SDS011;41608;45.384;20.394;2023-01-28T00:15:09;69.22;;;40.03;;
55706;SDS011;41608;45.384;20.394;2023-01-28T00:17:36;74.03;;;38.28;;
55706;SDS011;41608;45.384;20.394;2023-01-28T00:20:02;70.47;;;37.42;;
55706;SDS011;41608;45.384;20.394;2023-01-28T00:22:28;73.97;;;39.40;;
55706;SDS011;41608;45.384;20.394;2023-01-28T00:24:54;73.30;;;40.80;;
55706;SDS011;41608;45.384;20.394;2023-01-28T00:27:20;70.45;;;40.25;;
55706;SDS011;41608;45.384;20.394;2023-01-28T00:29:46;84.80;;;45.22;;
55706;SDS011;41608;45.384;20.394;2023-01-28T00:32:13;98.50;;;51.00;;
55706;SDS011;41608;45.384;20.394;2023-01-28T00:34:39;82.82;;;48.40;;
55706;SDS011;41608;45.384;20.394;2023-01-28T00:37:05;77.00;;;43.60;;
55706;SDS011;41608;45.384;20.394;2023-01-28T00:39:31;74.40;;;39.50;;
55706;SDS011;41608;45.384;20.394;2023-01-28T00:41:57;67.13;;;39.47;;
55706;SDS011;41608;45.384;20.394;2023-01-28T00:44:23;81.30;;;45.03;;
55706;SDS011;41608;45.384;20.394;2023-01-28T00:46:49;74.63;;;40.13;;
55706;SDS011;41608;45.384;20.394;2023-01-28T00:49:15;68.88;;;40.10;;
55706;SDS011;41608;45.384;20.394;2023-01-28T00:51:41;67.88;;;39.22;;
55706;SDS011;41608;45.384;20.394;2023-01-28T00:54:08;60.60;;;37.78;;
55706;SDS011;41608;45.384;20.394;2023-01-28T00:56:35;63.03;;;37.33;;
55706;SDS011;41608;45.384;20.394;2023-01-28T00:59:01;67.97;;;39.15;;
55706;SDS011;41608;45.384;20.394;2023-01-28T01:01:27;68.65;;;41.88;;
55706;SDS011;41608;45.384;20.394;2023-01-28T01:03:53;70.32;;;39.55;;
55706;SDS011;41608;45.384;20.394;2023-01-28T01:06:27;70.22;;;40.38;;
55706;SDS011;41608;45.384;20.394;2023-01-28T01:08:53;80.20;;;39.38;;
55706;SDS011;41608;45.384;20.394;2023-01-28T01:11:19;70.35;;;39.70;;
55706;SDS011;41608;45.384;20.394;2023-01-28T01:14:04;69.10;;;41.20;;
55706;SDS011;41608;45.384;20.394;2023-01-28T01:16:31;76.18;;;42.10;;
55706;SDS011;41608;45.384;20.394;2023-01-28T01:18:57;65.70;;;40.15;;
55706;SDS011;41608;45.384;20.394;2023-01-28T01:21:25;70.07;;;43.22;;
55706;SDS011;41608;45.384;20.394;2023-01-28T01:23:51;78.68;;;41.25;;
55706;SDS011;41608;45.384;20.394;2023-01-28T01:26:18;66.35;;;38.78;;
55706;SDS011;41608;45.384;20.394;2023-01-28T01:28:44;70.47;;;38.70;;
55706;SDS011;41608;45.384;20.394;2023-01-28T01:31:11;62.00;;;37.90;;
55706;SDS011;41608;45.384;20.394;2023-01-28T01:33:39;69.15;;;40.38;;
55706;SDS011;41608;45.384;20.394;2023-01-28T01:36:05;68.93;;;40.08;;
55706;SDS011;41608;45.384;20.394;2023-01-28T01:38:31;67.32;;;39.38;;
55706;SDS011;41608;45.384;20.394;2023-01-28T01:40:58;64.63;;;37.30;;
55706;SDS011;41608;45.384;20.394;2023-01-28T01:43:24;67.40;;;38.72;;
55706;SDS011;41608;45.384;20.394;2023-01-28T01:45:53;63.03;;;40.42;;
55706;SDS011;41608;45.384;20.394;2023-01-28T01:48:22;60.47;;;37.33;;
55706;SDS011;41608;45.384;20.394;2023-01-28T01:50:53;72.80;;;39.45;;
55706;SDS011;41608;45.384;20.394;2023-01-28T01:53:21;61.95;;;38.17;;
55706;SDS011;41608;45.384;20.394;2023-01-28T01:55:49;60.85;;;39.17;;
55706;SDS011;41608;45.384;20.394;2023-01-28T01:58:17;60.53;;;35.88;;
55706;SDS011;41608;45.384;20.394;2023-01-28T02:00:43;71.57;;;38.58;;
55706;SDS011;41608;45.384;20.394;2023-01-28T02:03:09;62.65;;;35.40;;
55706;SDS011;41608;45.384;20.394;2023-01-28T02:05:36;71.03;;;39.67;;
55706;SDS011;41608;45.384;20.394;2023-01-28T02:08:02;63.53;;;38.58;;
55706;SDS011;41608;45.384;20.394;2023-01-28T02:10:48;63.95;;;36.13;;
55706;SDS011;41608;45.384;20.394;2023-01-28T02:13:15;65.22;;;37.35;;
55706;SDS011;41608;45.384;20.394;2023-01-28T02:15:42;63.03;;;36.60;;
55706;SDS011;41608;45.384;20.394;2023-01-28T02:18:09;65.05;;;34.97;;
55706;SDS011;41608;45.384;20.394;2023-01-28T02:28:40;57.70;;;34.47;;
55706;SDS011;41608;45.384;20.394;2023-01-28T02:36:01;60.30;;;36.22;;
55706;SDS011;41608;45.384;20.394;2023-01-28T02:38:30;61.63;;;36.28;;
55706;SDS011;41608;45.384;20.394;2023-01-28T02:41:03;55.67;;;33.00;;
55706;SDS011;41608;45.384;20.394;2023-01-28T02:43:35;56.75;;;33.22;;
55706;SDS011;41608;45.384;20.394;2023-01-28T02:48:55;52.78;;;33.63;;
55706;SDS011;41608;45.384;20.394;2023-01-28T02:53:53;57.58;;;33.40;;
55706;SDS011;41608;45.384;20.394;2023-01-28T02:56:37;61.25;;;35.30;;
55706;SDS011;41608;45.384;20.394;2023-01-28T02:59:10;56.95;;;33.17;;
55706;SDS011;41608;45.384;20.394;2023-01-28T03:01:58;51.40;;;32.35;;
55706;SDS011;41608;45.384;20.394;2023-01-28T03:04:27;54.50;;;30.63;;
55706;SDS011;41608;45.384;20.394;2023-01-28T03:06:57;51.80;;;29.85;;
55706;SDS011;41608;45.384;20.394;2023-01-28T03:09:26;51.90;;;31.80;;
55706;SDS011;41608;45.384;20.394;2023-01-28T03:14:44;49.08;;;30.95;;
55706;SDS011;41608;45.384;20.394;2023-01-28T03:17:32;45.97;;;29.55;;
55706;SDS011;41608;45.384;20.394;2023-01-28T03:20:20;57.03;;;29.88;;
55706;SDS011;41608;45.384;20.394;2023-01-28T03:23:07;54.50;;;31.47;;
55706;SDS011;41608;45.384;20.394;2023-01-28T03:25:53;57.65;;;32.50;;
55706;SDS011;41608;45.384;20.394;2023-01-28T03:28:40;57.90;;;32.72;;
55706;SDS011;41608;45.384;20.394;2023-01-28T03:31:25;52.53;;;31.30;;
55706;SDS011;41608;45.384;20.394;2023-01-28T03:34:10;49.42;;;29.45;;
55706;SDS011;41608;45.384;20.394;2023-01-28T03:36:55;55.50;;;30.00;;
55706;SDS011;41608;45.384;20.394;2023-01-28T03:39:25;55.28;;;30.70;;
55706;SDS011;41608;45.384;20.394;2023-01-28T03:41:56;64.05;;;33.40;;
55706;SDS011;41608;45.384;20.394;2023-01-28T03:44:22;56.75;;;33.55;;
55706;SDS011;41608;45.384;20.394;2023-01-28T03:47:07;56.78;;;33.10;;
55706;SDS011;41608;45.384;20.394;2023-01-28T03:49:37;52.22;;;28.40;;
55706;SDS011;41608;45.384;20.394;2023-01-28T03:52:06;52.97;;;31.75;;
55706;SDS011;41608;45.384;20.394;2023-01-28T03:54:32;60.42;;;32.05;;
55706;SDS011;41608;45.384;20.394;2023-01-28T03:56:58;59.03;;;32.35;;
55706;SDS011;41608;45.384;20.394;2023-01-28T03:59:24;54.03;;;30.15;;
55706;SDS011;41608;45.384;20.394;2023-01-28T04:01:50;51.17;;;30.35;;
55706;SDS011;41608;45.384;20.394;2023-01-28T04:04:17;57.97;;;31.90;;
55706;SDS011;41608;45.384;20.394;2023-01-28T04:06:49;52.38;;;30.75;;
55706;SDS011;41608;45.384;20.394;2023-01-28T04:09:15;53.97;;;30.67;;
55706;SDS011;41608;45.384;20.394;2023-01-28T04:11:41;50.97;;;30.13;;
55706;SDS011;41608;45.384;20.394;2023-01-28T04:14:07;55.70;;;28.15;;
55706;SDS011;41608;45.384;20.394;2023-01-28T04:16:33;46.95;;;32.03;;
55706;SDS011;41608;45.384;20.394;2023-01-28T04:18:59;52.30;;;30.35;;
55706;SDS011;41608;45.384;20.394;2023-01-28T04:21:27;55.00;;;31.25;;
55706;SDS011;41608;45.384;20.394;2023-01-28T04:23:53;60.03;;;34.10;;
55706;SDS011;41608;45.384;20.394;2023-01-28T04:26:20;54.80;;;30.48;;
55706;SDS011;41608;45.384;20.394;2023-01-28T04:28:46;50.30;;;31.63;;
55706;SDS011;41608;45.384;20.394;2023-01-28T04:31:12;49.85;;;28.45;;
55706;SDS011;41608;45.384;20.394;2023-01-28T04:33:38;56.55;;;32.10;;
55706;SDS011;41608;45.384;20.394;2023-01-28T04:36:04;55.92;;;30.73;;
55706;SDS011;41608;45.384;20.394;2023-01-28T04:38:30;48.70;;;26.27;;
55706;SDS011;41608;45.384;20.394;2023-01-28T04:40:56;50.45;;;30.20;;
55706;SDS011;41608;45.384;20.394;2023-01-28T04:43:22;46.28;;;29.40;;
55706;SDS011;41608;45.384;20.394;2023-01-28T04:45:48;48.08;;;31.60;;
55706;SDS011;41608;45.384;20.394;2023-01-28T04:48:15;55.92;;;31.27;;
55706;SDS011;41608;45.384;20.394;2023-01-28T04:50:42;57.17;;;31.13;;
55706;SDS011;41608;45.384;20.394;2023-01-28T04:53:08;49.30;;;28.88;;
55706;SDS011;41608;45.384;20.394;2023-01-28T04:55:34;51.53;;;30.52;;
55706;SDS011;41608;45.384;20.394;2023-01-28T04:58:01;51.08;;;31.65;;
55706;SDS011;41608;45.384;20.394;2023-01-28T05:00:27;52.33;;;30.83;;
55706;SDS011;41608;45.384;20.394;2023-01-28T05:02:53;49.35;;;31.58;;
55706;SDS011;41608;45.384;20.394;2023-01-28T05:05:19;52.35;;;29.35;;
55706;SDS011;41608;45.384;20.394;2023-01-28T05:07:52;51.47;;;31.92;;
55706;SDS011;41608;45.384;20.394;2023-01-28T05:10:18;59.17;;;33.20;;
55706;SDS011;41608;45.384;20.394;2023-01-28T05:12:45;58.60;;;33.63;;
55706;SDS011;41608;45.384;20.394;2023-01-28T05:15:12;58.60;;;35.67;;
55706;SDS011;41608;45.384;20.394;2023-01-28T05:17:38;56.08;;;33.45;;
55706;SDS011;41608;45.384;20.394;2023-01-28T05:20:04;59.08;;;32.20;;
55706;SDS011;41608;45.384;20.394;2023-01-28T05:22:30;48.38;;;31.25;;
55706;SDS011;41608;45.384;20.394;2023-01-28T05:24:56;52.38;;;30.75;;
55706;SDS011;41608;45.384;20.394;2023-01-28T05:27:23;55.72;;;31.48;;
55706;SDS011;41608;45.384;20.394;2023-01-28T05:29:49;52.20;;;31.88;;
55706;SDS011;41608;45.384;20.394;2023-01-28T05:32:15;54.10;;;29.27;;
55706;SDS011;41608;45.384;20.394;2023-01-28T05:34:43;56.60;;;33.03;;
55706;SDS011;41608;45.384;20.394;2023-01-28T05:37:09;53.08;;;30.60;;
55706;SDS011;41608;45.384;20.394;2023-01-28T05:39:35;63.28;;;32.92;;
55706;SDS011;41608;45.384;20.394;2023-01-28T05:42:01;51.22;;;30.33;;
55706;SDS011;41608;45.384;20.394;2023-01-28T05:44:27;45.22;;;30.95;;
55706;SDS011;41608;45.384;20.394;2023-01-28T05:46:53;58.28;;;30.52;;
55706;SDS011;41608;45.384;20.394;2023-01-28T05:49:19;50.83;;;29.33;;
55706;SDS011;41608;45.384;20.394;2023-01-28T05:51:46;55.08;;;31.13;;
55706;SDS011;41608;45.384;20.394;2023-01-28T05:54:12;48.65;;;29.42;;
55706;SDS011;41608;45.384;20.394;2023-01-28T05:56:38;55.63;;;30.98;;
55706;SDS011;41608;45.384;20.394;2023-01-28T05:59:04;52.97;;;30.00;;
55706;SDS011;41608;45.384;20.394;2023-01-28T06:01:31;52.30;;;30.25;;
55706;SDS011;41608;45.384;20.394;2023-01-28T06:03:57;55.58;;;30.42;;
55706;SDS011;41608;45.384;20.394;2023-01-28T06:06:24;49.95;;;29.52;;
55706;SDS011;41608;45.384;20.394;2023-01-28T06:08:50;54.25;;;32.45;;
55706;SDS011;41608;45.384;20.394;2023-01-28T06:11:16;51.30;;;30.20;;
55706;SDS011;41608;45.384;20.394;2023-01-28T06:13:42;58.10;;;34.25;;
55706;SDS011;41608;45.384;20.394;2023-01-28T06:16:08;55.83;;;31.33;;
55706;SDS011;41608;45.384;20.394;2023-01-28T06:18:34;50.40;;;30.00;;
55706;SDS011;41608;45.384;20.394;2023-01-28T06:21:00;49.17;;;29.33;;
55706;SDS011;41608;45.384;20.394;2023-01-28T06:23:26;53.85;;;31.60;;
55706;SDS011;41608;45.384;20.394;2023-01-28T06:25:53;52.25;;;30.45;;
55706;SDS011;41608;45.384;20.394;2023-01-28T06:28:19;45.85;;;29.60;;
55706;SDS011;41608;45.384;20.394;2023-01-28T06:30:49;59.05;;;31.45;;
55706;SDS011;41608;45.384;20.394;2023-01-28T06:33:15;50.05;;;29.95;;
55706;SDS011;41608;45.384;20.394;2023-01-28T06:35:41;48.20;;;31.15;;
55706;SDS011;41608;45.384;20.394;2023-01-28T06:38:09;48.30;;;30.55;;
55706;SDS011;41608;45.384;20.394;2023-01-28T06:40:35;47.25;;;29.23;;
55706;SDS011;41608;45.384;20.394;2023-01-28T06:43:01;53.65;;;30.10;;
55706;SDS011;41608;45.384;20.394;2023-01-28T06:45:27;56.67;;;33.92;;
55706;SDS011;41608;45.384;20.394;2023-01-28T06:47:53;56.78;;;30.55;;
55706;SDS011;41608;45.384;20.394;2023-01-28T06:50:19;52.83;;;33.20;;
55706;SDS011;41608;45.384;20.394;2023-01-28T06:52:45;58.83;;;33.72;;
55706;SDS011;41608;45.384;20.394;2023-01-28T06:55:11;53.67;;;30.10;;
55706;SDS011;41608;45.384;20.394;2023-01-28T06:57:38;49.47;;;29.75;;
55706;SDS011;41608;45.384;20.394;2023-01-28T07:00:05;50.45;;;29.92;;
55706;SDS011;41608;45.384;20.394;2023-01-28T07:02:32;60.08;;;31.50;;
55706;SDS011;41608;45.384;20.394;2023-01-28T07:05:00;49.42;;;28.20;;
55706;SDS011;41608;45.384;20.394;2023-01-28T07:07:26;49.03;;;30.17;;
55706;SDS011;41608;45.384;20.394;2023-01-28T07:09:52;56.45;;;29.90;;
55706;SDS011;41608;45.384;20.394;2023-01-28T07:12:18;57.15;;;32.53;;
55706;SDS011;41608;45.384;20.394;2023-01-28T07:14:44;50.60;;;29.63;;
55706;SDS011;41608;45.384;20.394;2023-01-28T07:17:10;52.10;;;30.90;;
55706;SDS011;41608;45.384;20.394;2023-01-28T07:19:37;53.35;;;31.95;;
55706;SDS011;41608;45.384;20.394;2023-01-28T07:22:03;53.05;;;29.52;;
55706;SDS011;41608;45.384;20.394;2023-01-28T07:24:29;49.17;;;31.20;;
55706;SDS011;41608;45.384;20.394;2023-01-28T07:26:55;56.05;;;33.60;;
55706;SDS011;41608;45.384;20.394;2023-01-28T07:29:21;49.92;;;30.88;;
55706;SDS011;41608;45.384;20.394;2023-01-28T07:31:47;50.72;;;31.27;;
55706;SDS011;41608;45.384;20.394;2023-01-28T07:34:13;51.53;;;31.88;;
55706;SDS011;41608;45.384;20.394;2023-01-28T07:36:40;50.67;;;30.20;;
55706;SDS011;41608;45.384;20.394;2023-01-28T07:39:07;49.90;;;30.40;;
55706;SDS011;41608;45.384;20.394;2023-01-28T07:41:33;52.95;;;31.63;;
55706;SDS011;41608;45.384;20.394;2023-01-28T07:43:59;50.50;;;30.83;;
55706;SDS011;41608;45.384;20.394;2023-01-28T07:46:25;52.88;;;32.50;;
55706;SDS011;41608;45.384;20.394;2023-01-28T07:48:51;57.85;;;34.22;;
55706;SDS011;41608;45.384;20.394;2023-01-28T07:51:17;56.97;;;33.35;;
55706;SDS011;41608;45.384;20.394;2023-01-28T07:53:43;51.22;;;30.52;;
55706;SDS011;41608;45.384;20.394;2023-01-28T07:56:09;52.78;;;31.98;;
55706;SDS011;41608;45.384;20.394;2023-01-28T07:58:35;55.03;;;31.00;;
55706;SDS011;41608;45.384;20.394;2023-01-28T08:01:01;54.22;;;34.17;;
55706;SDS011;41608;45.384;20.394;2023-01-28T08:03:27;58.08;;;35.85;;
55706;SDS011;41608;45.384;20.394;2023-01-28T08:05:54;48.63;;;31.60;;
55706;SDS011;41608;45.384;20.394;2023-01-28T08:08:21;55.35;;;34.08;;
55706;SDS011;41608;45.384;20.394;2023-01-28T08:10:48;51.28;;;30.63;;
55706;SDS011;41608;45.384;20.394;2023-01-28T08:13:14;54.75;;;31.13;;
55706;SDS011;41608;45.384;20.394;2023-01-28T08:15:41;45.50;;;30.63;;
55706;SDS011;41608;45.384;20.394;2023-01-28T08:18:08;53.88;;;30.80;;
55706;SDS011;41608;45.384;20.394;2023-01-28T08:20:34;52.45;;;31.10;;
55706;SDS011;41608;45.384;20.394;2023-01-28T08:23:19;49.70;;;29.50;;
55706;SDS011;41608;45.384;20.394;2023-01-28T08:25:45;62.83;;;32.58;;
55706;SDS011;41608;45.384;20.394;2023-01-28T08:28:12;59.35;;;35.40;;
55706;SDS011;41608;45.384;20.394;2023-01-28T08:30:38;54.33;;;33.78;;
55706;SDS011;41608;45.384;20.394;2023-01-28T08:33:05;48.45;;;31.02;;
55706;SDS011;41608;45.384;20.394;2023-01-28T08:35:32;50.38;;;32.50;;
55706;SDS011;41608;45.384;20.394;2023-01-28T08:37:58;56.13;;;31.90;;
55706;SDS011;41608;45.384;20.394;2023-01-28T08:40:25;61.38;;;34.33;;
55706;SDS011;41608;45.384;20.394;2023-01-28T08:42:51;55.28;;;32.92;;
55706;SDS011;41608;45.384;20.394;2023-01-28T08:45:18;59.17;;;34.30;;
55706;SDS011;41608;45.384;20.394;2023-01-28T08:47:50;53.63;;;29.65;;
55706;SDS011;41608;45.384;20.394;2023-01-28T08:50:16;62.92;;;35.33;;
55706;SDS011;41608;45.384;20.394;2023-01-28T08:52:43;54.00;;;32.35;;
55706;SDS011;41608;45.384;20.394;2023-01-28T08:55:09;57.03;;;33.25;;
55706;SDS011;41608;45.384;20.394;2023-01-28T08:57:36;66.72;;;35.58;;
55706;SDS011;41608;45.384;20.394;2023-01-28T09:00:02;56.85;;;34.47;;
55706;SDS011;41608;45.384;20.394;2023-01-28T09:02:29;55.92;;;31.95;;
55706;SDS011;41608;45.384;20.394;2023-01-28T09:04:55;50.17;;;30.40;;
55706;SDS011;41608;45.384;20.394;2023-01-28T09:07:21;58.22;;;31.65;;
55706;SDS011;41608;45.384;20.394;2023-01-28T09:09:47;54.20;;;34.47;;
55706;SDS011;41608;45.384;20.394;2023-01-28T09:12:13;52.90;;;31.52;;
55706;SDS011;41608;45.384;20.394;2023-01-28T09:14:41;55.75;;;33.95;;
55706;SDS011;41608;45.384;20.394;2023-01-28T09:17:07;55.00;;;30.38;;
55706;SDS011;41608;45.384;20.394;2023-01-28T09:19:33;55.53;;;33.35;;
55706;SDS011;41608;45.384;20.394;2023-01-28T09:22:00;50.25;;;30.70;;
55706;SDS011;41608;45.384;20.394;2023-01-28T09:24:27;46.78;;;29.08;;
55706;SDS011;41608;45.384;20.394;2023-01-28T09:26:53;52.13;;;31.52;;
55706;SDS011;41608;45.384;20.394;2023-01-28T09:29:21;56.20;;;31.52;;
55706;SDS011;41608;45.384;20.394;2023-01-28T09:31:47;54.58;;;32.17;;
55706;SDS011;41608;45.384;20.394;2023-01-28T09:34:13;54.80;;;30.67;;
55706;SDS011;41608;45.384;20.394;2023-01-28T09:36:39;57.50;;;31.98;;
55706;SDS011;41608;45.384;20.394;2023-01-28T09:39:05;53.33;;;33.40;;
55706;SDS011;41608;45.384;20.394;2023-01-28T09:46:39;91.60;;;44.38;;
55706;SDS011;41608;45.384;20.394;2023-01-28T09:51:55;62.05;;;35.08;;
55706;SDS011;41608;45.384;20.394;2023-01-28T09:56:47;65.97;;;38.08;;
55706;SDS011;41608;45.384;20.394;2023-01-28T10:11:53;62.42;;;39.45;;
55706;SDS011;41608;45.384;20.394;2023-01-28T10:14:32;65.03;;;37.63;;
55706;SDS011;41608;45.384;20.394;2023-01-28T10:17:10;64.72;;;39.55;;
55706;SDS011;41608;45.384;20.394;2023-01-28T10:22:43;49.10;;;32.08;;
55706;SDS011;41608;45.384;20.394;2023-01-28T10:25:22;60.30;;;35.17;;
55706;SDS011;41608;45.384;20.394;2023-01-28T10:27:49;63.05;;;37.47;;
55706;SDS011;41608;45.384;20.394;2023-01-28T10:30:17;63.03;;;36.47;;
55706;SDS011;41608;45.384;20.394;2023-01-28T10:32:51;73.25;;;40.85;;
55706;SDS011;41608;45.384;20.394;2023-01-28T10:35:18;64.30;;;36.55;;
55706;SDS011;41608;45.384;20.394;2023-01-28T10:37:44;68.00;;;39.95;;
55706;SDS011;41608;45.384;20.394;2023-01-28T10:40:12;61.55;;;37.70;;
55706;SDS011;41608;45.384;20.394;2023-01-28T10:42:39;63.83;;;38.55;;
55706;SDS011;41608;45.384;20.394;2023-01-28T10:47:37;63.22;;;40.00;;
55706;SDS011;41608;45.384;20.394;2023-01-28T10:50:04;64.30;;;41.40;;
55706;SDS011;41608;45.384;20.394;2023-01-28T10:52:33;69.40;;;39.65;;
55706;SDS011;41608;45.384;20.394;2023-01-28T10:55:05;56.65;;;35.15;;
55706;SDS011;41608;45.384;20.394;2023-01-28T10:57:34;64.22;;;35.45;;
55706;SDS011;41608;45.384;20.394;2023-01-28T11:00:11;62.88;;;38.17;;
55706;SDS011;41608;45.384;20.394;2023-01-28T11:02:37;58.55;;;37.75;;
55706;SDS011;41608;45.384;20.394;2023-01-28T11:05:06;62.63;;;36.28;;
55706;SDS011;41608;45.384;20.394;2023-01-28T11:07:40;62.40;;;35.30;;
55706;SDS011;41608;45.384;20.394;2023-01-28T11:12:53;60.22;;;38.08;;
55706;SDS011;41608;45.384;20.394;2023-01-28T11:15:19;57.75;;;36.22;;
55706;SDS011;41608;45.384;20.394;2023-01-28T11:20:41;57.22;;;34.55;;
55706;SDS011;41608;45.384;20.394;2023-01-28T11:23:20;63.97;;;35.00;;
55706;SDS011;41608;45.384;20.394;2023-01-28T11:25:46;61.15;;;36.53;;
55706;SDS011;41608;45.384;20.394;2023-01-28T11:28:17;59.92;;;36.55;;
55706;SDS011;41608;45.384;20.394;2023-01-28T11:30:48;65.47;;;35.20;;
55706;SDS011;41608;45.384;20.394;2023-01-28T11:33:16;62.80;;;38.10;;
55706;SDS011;41608;45.384;20.394;2023-01-28T11:35:51;59.67;;;37.50;;
55706;SDS011;41608;45.384;20.394;2023-01-28T11:38:19;56.55;;;37.58;;
55706;SDS011;41608;45.384;20.394;2023-01-28T11:43:35;57.70;;;36.95;;
55706;SDS011;41608;45.384;20.394;2023-01-28T11:46:15;62.00;;;37.03;;
55706;SDS011;41608;45.384;20.394;2023-01-28T12:05:42;78.78;;;41.58;;
55706;SDS011;41608;45.384;20.394;2023-01-28T12:13:22;65.20;;;37.55;;
55706;SDS011;41608;45.384;20.394;2023-01-28T12:26:23;57.78;;;33.97;;
55706;SDS011;41608;45.384;20.394;2023-01-28T12:28:57;53.05;;;34.00;;
55706;SDS011;41608;45.384;20.394;2023-01-28T12:31:29;50.33;;;32.58;;
55706;SDS011;41608;45.384;20.394;2023-01-28T12:39:10;59.22;;;34.53;;
55706;SDS011;41608;45.384;20.394;2023-01-28T12:41:43;52.58;;;32.25;;
55706;SDS011;41608;45.384;20.394;2023-01-28T12:44:13;50.45;;;30.92;;
55706;SDS011;41608;45.384;20.394;2023-01-28T12:46:48;53.85;;;33.70;;
55706;SDS011;41608;45.384;20.394;2023-01-28T12:57:15;61.70;;;36.83;;
55706;SDS011;41608;45.384;20.394;2023-01-28T13:02:38;45.53;;;28.65;;
55706;SDS011;41608;45.384;20.394;2023-01-28T13:05:13;47.55;;;32.50;;
55706;SDS011;41608;45.384;20.394;2023-01-28T13:07:42;46.45;;;29.75;;
55706;SDS011;41608;45.384;20.394;2023-01-28T13:12:35;50.25;;;32.58;;
55706;SDS011;41608;45.384;20.394;2023-01-28T13:15:04;52.72;;;34.55;;
55706;SDS011;41608;45.384;20.394;2023-01-28T13:17:31;56.35;;;34.75;;
55706;SDS011;41608;45.384;20.394;2023-01-28T13:19:58;54.17;;;34.65;;
55706;SDS011;41608;45.384;20.394;2023-01-28T13:22:26;56.40;;;33.28;;
55706;SDS011;41608;45.384;20.394;2023-01-28T13:24:52;48.28;;;29.58;;
55706;SDS011;41608;45.384;20.394;2023-01-28T13:27:26;44.53;;;29.88;;
55706;SDS011;41608;45.384;20.394;2023-01-28T13:30:03;45.83;;;28.42;;
55706;SDS011;41608;45.384;20.394;2023-01-28T13:32:34;42.08;;;28.52;;
55706;SDS011;41608;45.384;20.394;2023-01-28T13:35:02;48.08;;;29.50;;
55706;SDS011;41608;45.384;20.394;2023-01-28T13:37:34;53.72;;;33.42;;
55706;SDS011;41608;45.384;20.394;2023-01-28T13:40:24;67.38;;;39.90;;
55706;SDS011;41608;45.384;20.394;2023-01-28T13:42:59;62.78;;;37.13;;
55706;SDS011;41608;45.384;20.394;2023-01-28T13:45:25;52.80;;;34.58;;
55706;SDS011;41608;45.384;20.394;2023-01-28T13:47:57;49.08;;;31.40;;
55706;SDS011;41608;45.384;20.394;2023-01-28T13:50:26;54.08;;;32.75;;
55706;SDS011;41608;45.384;20.394;2023-01-28T13:52:58;52.90;;;32.90;;
55706;SDS011;41608;45.384;20.394;2023-01-28T13:55:37;48.47;;;29.45;;
55706;SDS011;41608;45.384;20.394;2023-01-28T14:00:39;45.95;;;29.08;;
55706;SDS011;41608;45.384;20.394;2023-01-28T14:18:43;48.80;;;30.15;;
55706;SDS011;41608;45.384;20.394;2023-01-28T14:21:14;47.97;;;32.20;;
55706;SDS011;41608;45.384;20.394;2023-01-28T14:23:55;50.35;;;32.25;;
55706;SDS011;41608;45.384;20.394;2023-01-28T14:26:29;44.35;;;29.58;;
55706;SDS011;41608;45.384;20.394;2023-01-28T14:29:15;44.75;;;30.58;;
55706;SDS011;41608;45.384;20.394;2023-01-28T14:31:43;48.28;;;30.73;;
55706;SDS011;41608;45.384;20.394;2023-01-28T14:34:12;47.67;;;30.88;;
55706;SDS011;41608;45.384;20.394;2023-01-28T14:36:43;52.70;;;32.20;;
55706;SDS011;41608;45.384;20.394;2023-01-28T14:39:31;50.60;;;33.47;;
55706;SDS011;41608;45.384;20.394;2023-01-28T14:41:56;49.92;;;32.63;;
55706;SDS011;41608;45.384;20.394;2023-01-28T14:44:33;44.70;;;33.08;;
55706;SDS011;41608;45.384;20.394;2023-01-28T14:57:44;55.95;;;32.80;;
55706;SDS011;41608;45.384;20.394;2023-01-28T15:00:25;57.33;;;37.40;;
55706;SDS011;41608;45.384;20.394;2023-01-28T15:02:51;56.50;;;36.50;;
55706;SDS011;41608;45.384;20.394;2023-01-28T15:05:21;58.03;;;36.40;;
55706;SDS011;41608;45.384;20.394;2023-01-28T15:07:48;50.58;;;34.88;;
55706;SDS011;41608;45.384;20.394;2023-01-28T15:12:41;59.80;;;39.45;;
55706;SDS011;41608;45.384;20.394;2023-01-28T15:15:09;54.80;;;35.83;;
55706;SDS011;41608;45.384;20.394;2023-01-28T15:17:35;59.42;;;36.38;;
55706;SDS011;41608;45.384;20.394;2023-01-28T15:20:01;61.60;;;37.30;;
55706;SDS011;41608;45.384;20.394;2023-01-28T15:22:28;59.03;;;37.28;;
55706;SDS011;41608;45.384;20.394;2023-01-28T15:24:54;55.78;;;35.10;;
55706;SDS011;41608;45.384;20.394;2023-01-28T15:27:29;57.35;;;35.60;;
55706;SDS011;41608;45.384;20.394;2023-01-28T15:29:57;57.42;;;36.03;;
55706;SDS011;41608;45.384;20.394;2023-01-28T15:32:29;61.25;;;34.85;;
55706;SDS011;41608;45.384;20.394;2023-01-28T15:34:58;57.92;;;34.83;;
55706;SDS011;41608;45.384;20.394;2023-01-28T15:37:25;48.95;;;32.22;;
55706;SDS011;41608;45.384;20.394;2023-01-28T15:40:01;57.20;;;35.45;;
55706;SDS011;41608;45.384;20.394;2023-01-28T15:42:30;62.47;;;37.55;;
55706;SDS011;41608;45.384;20.394;2023-01-28T15:44:56;86.30;;;46.10;;
55706;SDS011;41608;45.384;20.394;2023-01-28T15:47:24;68.20;;;40.97;;
55706;SDS011;41608;45.384;20.394;2023-01-28T15:49:55;59.15;;;36.15;;
55706;SDS011;41608;45.384;20.394;2023-01-28T15:52:28;64.43;;;35.65;;
55706;SDS011;41608;45.384;20.394;2023-01-28T15:54:54;66.55;;;35.85;;
55706;SDS011;41608;45.384;20.394;2023-01-28T15:57:24;58.70;;;36.92;;
55706;SDS011;41608;45.384;20.394;2023-01-28T16:00:03;58.53;;;37.58;;
55706;SDS011;41608;45.384;20.394;2023-01-28T16:02:29;53.90;;;36.38;;
55706;SDS011;41608;45.384;20.394;2023-01-28T16:05:02;51.28;;;34.03;;
55706;SDS011;41608;45.384;20.394;2023-01-28T16:07:31;50.67;;;31.48;;
55706;SDS011;41608;45.384;20.394;2023-01-28T16:09:58;60.10;;;33.42;;
55706;SDS011;41608;45.384;20.394;2023-01-28T16:12:25;58.13;;;34.38;;
55706;SDS011;41608;45.384;20.394;2023-01-28T16:14:55;57.45;;;35.30;;
55706;SDS011;41608;45.384;20.394;2023-01-28T16:17:26;55.13;;;31.70;;
55706;SDS011;41608;45.384;20.394;2023-01-28T16:19:57;47.65;;;32.28;;
55706;SDS011;41608;45.384;20.394;2023-01-28T16:22:37;62.45;;;37.95;;
55706;SDS011;41608;45.384;20.394;2023-01-28T16:25:23;61.67;;;36.03;;
55706;SDS011;41608;45.384;20.394;2023-01-28T16:27:49;60.97;;;36.60;;
55706;SDS011;41608;45.384;20.394;2023-01-28T16:30:16;50.60;;;34.33;;
55706;SDS011;41608;45.384;20.394;2023-01-28T16:32:42;50.00;;;30.33;;
55706;SDS011;41608;45.384;20.394;2023-01-28T16:35:18;57.05;;;33.70;;
55706;SDS011;41608;45.384;20.394;2023-01-28T16:37:46;55.65;;;32.30;;